sensor_id;sensor_type;location;lat;lon;timestamp;pressure;altitude;pressure_sealevel;temperature;humidity
41044;BME280;51680;49.806;18.774;2022-12-18T00:00:14;98808.53;;;-0.55;74.40
41044;BME280;51680;49.806;18.774;2022-12-18T00:03:19;98808.53;;;-0.55;74.57
41044;BME280;51680;49.806;18.774;2022-12-18T00:06:22;98816.22;;;-0.58;74.43
41044;BME280;51680;49.806;18.774;2022-12-18T00:09:43;98816.25;;;-0.60;74.08
41044;BME280;51680;49.806;18.774;2022-12-18T00:12:45;98812.81;;;-0.60;74.36
41044;BME280;51680;49.806;18.774;2022-12-18T00:15:47;98827.34;;;-0.56;74.57
41044;BME280;51680;49.806;18.774;2022-12-18T00:18:50;98822.22;;;-0.62;74.34
41044;BME280;51680;49.806;18.774;2022-12-18T00:21:53;98832.44;;;-0.65;74.12
41044;BME280;51680;49.806;18.774;2022-12-18T00:24:56;98841.84;;;-0.66;74.43
41044;BME280;51680;49.806;18.774;2022-12-18T00:27:58;98840.97;;;-0.69;74.32
41044;BME280;51680;49.806;18.774;2022-12-18T00:31:00;98840.97;;;-0.63;74.75
41044;BME280;51680;49.806;18.774;2022-12-18T00:34:03;98845.25;;;-0.67;74.09
41044;BME280;51680;49.806;18.774;2022-12-18T00:37:04;98848.66;;;-0.69;74.13
41044;BME280;51680;49.806;18.774;2022-12-18T00:40:09;98844.38;;;-0.67;74.58
41044;BME280;51680;49.806;18.774;2022-12-18T00:43:11;98856.38;;;-0.66;74.69
41044;BME280;51680;49.806;18.774;2022-12-18T00:46:12;98847.81;;;-0.65;74.40
41044;BME280;51680;49.806;18.774;2022-12-18T00:49:15;98851.22;;;-0.69;74.23
41044;BME280;51680;49.806;18.774;2022-12-18T00:52:17;98866.59;;;-0.71;74.54
41044;BME280;51680;49.806;18.774;2022-12-18T00:55:20;98860.59;;;-0.74;74.83
41044;BME280;51680;49.806;18.774;2022-12-18T00:58:22;98865.75;;;-0.71;74.53
41044;BME280;51680;49.806;18.774;2022-12-18T01:01:23;98861.47;;;-0.75;74.39
41044;BME280;51680;49.806;18.774;2022-12-18T01:04:25;98875.09;;;-0.82;74.26
41044;BME280;51680;49.806;18.774;2022-12-18T01:07:27;98882.78;;;-0.82;74.61
41044;BME280;51680;49.806;18.774;2022-12-18T01:10:31;98875.94;;;-0.83;74.26
41044;BME280;51680;49.806;18.774;2022-12-18T01:13:32;98878.50;;;-0.86;74.40
41044;BME280;51680;49.806;18.774;2022-12-18T01:16:34;98878.50;;;-0.83;74.64
41044;BME280;51680;49.806;18.774;2022-12-18T01:19:38;98873.41;;;-0.77;74.53
41044;BME280;51680;49.806;18.774;2022-12-18T01:22:44;98885.38;;;-0.73;74.60
41044;BME280;51680;49.806;18.774;2022-12-18T01:25:47;98878.56;;;-0.73;74.35
41044;BME280;51680;49.806;18.774;2022-12-18T01:28:49;98885.41;;;-0.70;74.52
41044;BME280;51680;49.806;18.774;2022-12-18T01:31:50;98887.13;;;-0.69;74.11
41044;BME280;51680;49.806;18.774;2022-12-18T01:34:52;98895.66;;;-0.70;74.19
41044;BME280;51680;49.806;18.774;2022-12-18T01:37:54;98905.09;;;-0.66;73.99
41044;BME280;51680;49.806;18.774;2022-12-18T01:40:58;98892.25;;;-0.68;73.81
41044;BME280;51680;49.806;18.774;2022-12-18T01:44:00;98901.66;;;-0.67;74.05
41044;BME280;51680;49.806;18.774;2022-12-18T01:47:02;98909.34;;;-0.71;73.81
41044;BME280;51680;49.806;18.774;2022-12-18T01:50:08;98905.03;;;-0.71;74.35
41044;BME280;51680;49.806;18.774;2022-12-18T01:53:13;98912.72;;;-0.72;74.36
41044;BME280;51680;49.806;18.774;2022-12-18T01:56:18;98914.47;;;-0.71;74.35
41044;BME280;51680;49.806;18.774;2022-12-18T01:59:21;98914.44;;;-0.74;74.29
41044;BME280;51680;49.806;18.774;2022-12-18T02:02:23;98919.59;;;-0.71;74.22
41044;BME280;51680;49.806;18.774;2022-12-18T02:05:36;98917.00;;;-0.68;74.21
41044;BME280;51680;49.806;18.774;2022-12-18T02:08:48;98920.44;;;-0.69;74.18
41044;BME280;51680;49.806;18.774;2022-12-18T02:11:59;98926.38;;;-0.73;73.82
41044;BME280;51680;49.806;18.774;2022-12-18T02:15:07;98932.28;;;-0.89;73.49
41044;BME280;51680;49.806;18.774;2022-12-18T02:18:17;98938.34;;;-0.81;74.68
41044;BME280;51680;49.806;18.774;2022-12-18T02:21:25;98946.06;;;-0.75;74.35
41044;BME280;51680;49.806;18.774;2022-12-18T02:24:35;98947.75;;;-0.74;74.50
41044;BME280;51680;49.806;18.774;2022-12-18T02:27:41;98944.31;;;-0.75;74.12
41044;BME280;51680;49.806;18.774;2022-12-18T02:30:47;98947.78;;;-0.73;73.99
41044;BME280;51680;49.806;18.774;2022-12-18T02:33:51;98949.47;;;-0.67;74.42
41044;BME280;51680;49.806;18.774;2022-12-18T02:36:59;98949.50;;;-0.69;74.07
41044;BME280;51680;49.806;18.774;2022-12-18T02:40:04;98947.81;;;-0.64;74.04
41044;BME280;51680;49.806;18.774;2022-12-18T02:43:13;98948.69;;;-0.60;74.06
41044;BME280;51680;49.806;18.774;2022-12-18T02:46:28;98956.41;;;-0.54;73.52
41044;BME280;51680;49.806;18.774;2022-12-18T02:49:36;98955.53;;;-0.53;73.84
41044;BME280;51680;49.806;18.774;2022-12-18T02:52:51;98957.28;;;-0.49;73.79
41044;BME280;51680;49.806;18.774;2022-12-18T02:56:02;98958.09;;;-0.59;73.78
41044;BME280;51680;49.806;18.774;2022-12-18T02:59:12;98966.63;;;-0.60;73.64
41044;BME280;51680;49.806;18.774;2022-12-18T03:02:25;98974.34;;;-0.57;74.17
41044;BME280;51680;49.806;18.774;2022-12-18T03:05:31;98970.94;;;-0.56;73.86
41044;BME280;51680;49.806;18.774;2022-12-18T03:08:38;98979.50;;;-0.51;73.64
41044;BME280;51680;49.806;18.774;2022-12-18T03:11:45;98982.06;;;-0.50;73.56
41044;BME280;51680;49.806;18.774;2022-12-18T03:15:11;98978.66;;;-0.50;73.55
41044;BME280;51680;49.806;18.774;2022-12-18T03:18:18;98990.59;;;-0.51;73.67
41044;BME280;51680;49.806;18.774;2022-12-18T03:21:27;98986.34;;;-0.50;73.44
41044;BME280;51680;49.806;18.774;2022-12-18T03:24:31;98984.63;;;-0.51;73.44
41044;BME280;51680;49.806;18.774;2022-12-18T03:27:36;98988.00;;;-0.57;73.36
41044;BME280;51680;49.806;18.774;2022-12-18T03:30:44;98985.44;;;-0.58;73.59
41044;BME280;51680;49.806;18.774;2022-12-18T03:33:52;98991.44;;;-0.53;73.07
41044;BME280;51680;49.806;18.774;2022-12-18T03:37:02;98993.19;;;-0.52;73.41
41044;BME280;51680;49.806;18.774;2022-12-18T03:40:06;98996.59;;;-0.55;73.40
41044;BME280;51680;49.806;18.774;2022-12-18T03:43:11;98994.03;;;-0.55;73.67
41044;BME280;51680;49.806;18.774;2022-12-18T03:46:25;98992.28;;;-0.54;73.11
41044;BME280;51680;49.806;18.774;2022-12-18T03:49:33;98998.31;;;-0.52;73.05
41044;BME280;51680;49.806;18.774;2022-12-18T03:52:39;99001.72;;;-0.50;73.02
41044;BME280;51680;49.806;18.774;2022-12-18T03:55:43;99005.13;;;-0.57;72.46
41044;BME280;51680;49.806;18.774;2022-12-18T03:58:46;99006.78;;;-0.61;72.62
41044;BME280;51680;49.806;18.774;2022-12-18T04:01:55;99016.13;;;-0.67;72.43
41044;BME280;51680;49.806;18.774;2022-12-18T04:05:03;99019.53;;;-0.73;72.45
41044;BME280;51680;49.806;18.774;2022-12-18T04:08:08;99025.50;;;-0.75;72.63
41044;BME280;51680;49.806;18.774;2022-12-18T04:11:14;99027.16;;;-0.83;72.96
41044;BME280;51680;49.806;18.774;2022-12-18T04:14:17;99025.47;;;-0.81;72.92
41044;BME280;51680;49.806;18.774;2022-12-18T04:17:25;99040.88;;;-0.77;73.04
41044;BME280;51680;49.806;18.774;2022-12-18T04:20:27;99041.72;;;-0.78;72.64
41044;BME280;51680;49.806;18.774;2022-12-18T04:23:29;99050.06;;;-1.01;72.22
41044;BME280;51680;49.806;18.774;2022-12-18T04:26:32;99044.88;;;-1.12;72.65
41044;BME280;51680;49.806;18.774;2022-12-18T04:29:45;99043.06;;;-1.23;72.98
41044;BME280;51680;49.806;18.774;2022-12-18T04:32:48;99058.47;;;-1.17;73.49
41044;BME280;51680;49.806;18.774;2022-12-18T04:35:50;99058.50;;;-1.16;73.34
41044;BME280;51680;49.806;18.774;2022-12-18T04:38:52;99062.75;;;-1.16;73.06
41044;BME280;51680;49.806;18.774;2022-12-18T04:41:56;99068.69;;;-1.20;72.98
41044;BME280;51680;49.806;18.774;2022-12-18T04:45:04;99072.72;;;-1.46;73.71
41044;BME280;51680;49.806;18.774;2022-12-18T04:48:07;99072.78;;;-1.40;74.20
41044;BME280;51680;49.806;18.774;2022-12-18T04:51:09;99073.66;;;-1.38;74.45
41044;BME280;51680;49.806;18.774;2022-12-18T04:54:13;99083.16;;;-1.25;75.04
41044;BME280;51680;49.806;18.774;2022-12-18T04:57:15;99084.16;;;-1.10;74.46
41044;BME280;51680;49.806;18.774;2022-12-18T05:00:18;99081.63;;;-1.08;73.62
41044;BME280;51680;49.806;18.774;2022-12-18T05:03:21;99093.44;;;-1.22;73.49
41044;BME280;51680;49.806;18.774;2022-12-18T05:06:23;99090.06;;;-1.18;73.50
41044;BME280;51680;49.806;18.774;2022-12-18T05:09:25;99086.56;;;-1.29;73.56
41044;BME280;51680;49.806;18.774;2022-12-18T05:12:27;99095.97;;;-1.27;73.32
41044;BME280;51680;49.806;18.774;2022-12-18T05:15:30;99096.81;;;-1.26;73.13
41044;BME280;51680;49.806;18.774;2022-12-18T05:18:33;99100.16;;;-1.33;72.91
41044;BME280;51680;49.806;18.774;2022-12-18T05:21:35;99111.34;;;-1.27;73.44
41044;BME280;51680;49.806;18.774;2022-12-18T05:24:37;99107.06;;;-1.26;73.25
41044;BME280;51680;49.806;18.774;2022-12-18T05:27:38;99107.03;;;-1.29;73.00
41044;BME280;51680;49.806;18.774;2022-12-18T05:30:40;99114.78;;;-1.23;73.02
41044;BME280;51680;49.806;18.774;2022-12-18T05:33:49;99115.63;;;-1.23;72.90
41044;BME280;51680;49.806;18.774;2022-12-18T05:36:50;99114.72;;;-1.31;72.79
41044;BME280;51680;49.806;18.774;2022-12-18T05:39:52;99111.34;;;-1.27;72.96
41044;BME280;51680;49.806;18.774;2022-12-18T05:42:54;99107.97;;;-1.21;72.71
41044;BME280;51680;49.806;18.774;2022-12-18T05:45:56;99110.56;;;-1.15;72.87
41044;BME280;51680;49.806;18.774;2022-12-18T05:49:00;99119.09;;;-1.19;72.43
41044;BME280;51680;49.806;18.774;2022-12-18T05:52:02;99127.28;;;-1.53;73.25
41044;BME280;51680;49.806;18.774;2022-12-18T05:55:04;99121.13;;;-1.69;72.81
41044;BME280;51680;49.806;18.774;2022-12-18T05:58:08;99129.38;;;-1.89;73.15
41044;BME280;51680;49.806;18.774;2022-12-18T06:01:13;99132.00;;;-1.86;74.13
41044;BME280;51680;49.806;18.774;2022-12-18T06:04:16;99140.38;;;-1.96;73.08
41044;BME280;51680;49.806;18.774;2022-12-18T06:07:18;99132.69;;;-1.98;73.65
41044;BME280;51680;49.806;18.774;2022-12-18T06:10:20;99126.94;;;-1.80;74.12
41044;BME280;51680;49.806;18.774;2022-12-18T06:13:22;99143.16;;;-1.78;73.04
41044;BME280;51680;49.806;18.774;2022-12-18T06:16:24;99143.56;;;-2.12;73.29
41044;BME280;51680;49.806;18.774;2022-12-18T06:19:27;99144.16;;;-2.30;73.90
41044;BME280;51680;49.806;18.774;2022-12-18T06:22:30;99149.13;;;-2.40;74.83
41044;BME280;51680;49.806;18.774;2022-12-18T06:25:32;99149.66;;;-2.61;75.31
41044;BME280;51680;49.806;18.774;2022-12-18T06:28:34;99148.94;;;-3.04;77.06
41044;BME280;51680;49.806;18.774;2022-12-18T06:31:36;99158.41;;;-2.97;77.33
41044;BME280;51680;49.806;18.774;2022-12-18T06:34:39;99154.28;;;-2.89;76.69
41044;BME280;51680;49.806;18.774;2022-12-18T06:37:41;99162.25;;;-2.71;76.89
41044;BME280;51680;49.806;18.774;2022-12-18T06:40:43;99155.81;;;-2.48;76.35
41044;BME280;51680;49.806;18.774;2022-12-18T06:43:44;99160.19;;;-2.41;76.26
41044;BME280;51680;49.806;18.774;2022-12-18T06:46:46;99166.25;;;-2.35;75.95
41044;BME280;51680;49.806;18.774;2022-12-18T06:49:49;99171.88;;;-2.55;76.11
41044;BME280;51680;49.806;18.774;2022-12-18T06:52:51;99177.47;;;-2.79;76.57
41044;BME280;51680;49.806;18.774;2022-12-18T06:55:59;99186.22;;;-3.12;77.04
41044;BME280;51680;49.806;18.774;2022-12-18T06:59:01;99187.53;;;-3.32;77.97
41044;BME280;51680;49.806;18.774;2022-12-18T07:02:03;99185.03;;;-3.31;78.13
41044;BME280;51680;49.806;18.774;2022-12-18T07:05:07;99197.75;;;-3.32;78.33
41044;BME280;51680;49.806;18.774;2022-12-18T07:08:08;99201.56;;;-3.11;78.00
41044;BME280;51680;49.806;18.774;2022-12-18T07:11:10;99203.22;;;-3.14;77.92
41044;BME280;51680;49.806;18.774;2022-12-18T07:14:12;99203.31;;;-3.08;77.61
41044;BME280;51680;49.806;18.774;2022-12-18T07:17:14;99211.38;;;-2.87;77.35
41044;BME280;51680;49.806;18.774;2022-12-18T07:20:17;99212.19;;;-2.88;77.08
41044;BME280;51680;49.806;18.774;2022-12-18T07:23:19;99224.91;;;-2.93;77.46
41044;BME280;51680;49.806;18.774;2022-12-18T07:26:21;99217.22;;;-2.94;76.91
41044;BME280;51680;49.806;18.774;2022-12-18T07:29:23;99223.66;;;-3.14;77.41
41044;BME280;51680;49.806;18.774;2022-12-18T07:32:25;99238.66;;;-3.29;76.92
41044;BME280;51680;49.806;18.774;2022-12-18T07:35:28;99236.53;;;-3.50;77.25
41044;BME280;51680;49.806;18.774;2022-12-18T07:38:30;99240.47;;;-3.65;76.32
41044;BME280;51680;49.806;18.774;2022-12-18T07:41:32;99245.41;;;-3.31;76.31
41044;BME280;51680;49.806;18.774;2022-12-18T07:44:42;99245.72;;;-3.18;74.99
41044;BME280;51680;49.806;18.774;2022-12-18T07:47:44;99232.94;;;-3.16;74.33
41044;BME280;51680;49.806;18.774;2022-12-18T07:50:47;99237.88;;;-3.27;74.69
41044;BME280;51680;49.806;18.774;2022-12-18T07:53:49;99245.69;;;-3.19;75.20
41044;BME280;51680;49.806;18.774;2022-12-18T07:56:51;99245.34;;;-2.93;74.91
41044;BME280;51680;49.806;18.774;2022-12-18T07:59:53;99242.97;;;-2.82;74.86
41044;BME280;51680;49.806;18.774;2022-12-18T08:02:54;99242.97;;;-2.82;74.47
41044;BME280;51680;49.806;18.774;2022-12-18T08:05:59;99247.97;;;-3.31;76.30
41044;BME280;51680;49.806;18.774;2022-12-18T08:09:02;99257.59;;;-3.60;76.65
41044;BME280;51680;49.806;18.774;2022-12-18T08:12:04;99256.72;;;-3.60;77.42
41044;BME280;51680;49.806;18.774;2022-12-18T08:15:07;99251.94;;;-3.45;77.80
41044;BME280;51680;49.806;18.774;2022-12-18T08:18:09;99254.72;;;-3.35;77.89
41044;BME280;51680;49.806;18.774;2022-12-18T08:21:13;99251.13;;;-3.01;77.13
41044;BME280;51680;49.806;18.774;2022-12-18T08:24:16;99261.91;;;-2.71;76.18
41044;BME280;51680;49.806;18.774;2022-12-18T08:27:18;99264.69;;;-2.58;75.19
41044;BME280;51680;49.806;18.774;2022-12-18T08:30:19;99256.34;;;-2.48;74.78
41044;BME280;51680;49.806;18.774;2022-12-18T08:33:21;99257.69;;;-2.20;74.73
41044;BME280;51680;49.806;18.774;2022-12-18T08:36:24;99261.50;;;-1.94;74.49
41044;BME280;51680;49.806;18.774;2022-12-18T08:39:26;99266.47;;;-2.03;73.56
41044;BME280;51680;49.806;18.774;2022-12-18T08:42:28;99268.03;;;-2.11;73.52
41044;BME280;51680;49.806;18.774;2022-12-18T08:45:47;99272.63;;;-2.43;74.27
41044;BME280;51680;49.806;18.774;2022-12-18T08:48:50;99284.31;;;-2.58;74.74
41044;BME280;51680;49.806;18.774;2022-12-18T08:51:55;99297.63;;;-3.17;75.60
41044;BME280;51680;49.806;18.774;2022-12-18T08:54:57;99295.22;;;-3.11;76.38
41044;BME280;51680;49.806;18.774;2022-12-18T08:57:59;99292.22;;;-2.89;75.83
41044;BME280;51680;49.806;18.774;2022-12-18T09:01:01;99290.50;;;-2.90;75.24
41044;BME280;51680;49.806;18.774;2022-12-18T09:04:03;99291.28;;;-2.94;74.95
41044;BME280;51680;49.806;18.774;2022-12-18T09:07:06;99296.06;;;-2.66;74.68
41044;BME280;51680;49.806;18.774;2022-12-18T09:10:08;99283.50;;;-2.54;74.31
41044;BME280;51680;49.806;18.774;2022-12-18T09:13:11;99278.84;;;-1.11;73.75
41044;BME280;51680;49.806;18.774;2022-12-18T09:16:14;99266.97;;;1.42;70.30
41044;BME280;51680;49.806;18.774;2022-12-18T09:19:16;99266.13;;;4.08;65.50
41044;BME280;51680;49.806;18.774;2022-12-18T09:22:19;99243.81;;;6.56;59.37
41044;BME280;51680;49.806;18.774;2022-12-18T09:25:21;99237.97;;;8.40;54.66
41044;BME280;51680;49.806;18.774;2022-12-18T09:28:23;99245.97;;;8.66;49.61
41044;BME280;51680;49.806;18.774;2022-12-18T09:31:25;99249.41;;;8.98;50.75
41044;BME280;51680;49.806;18.774;2022-12-18T09:34:26;99249.16;;;10.20;49.61
41044;BME280;51680;49.806;18.774;2022-12-18T09:37:29;99252.78;;;10.41;44.31
41044;BME280;51680;49.806;18.774;2022-12-18T09:40:34;99250.72;;;9.13;41.91
41044;BME280;51680;49.806;18.774;2022-12-18T09:43:41;99250.00;;;8.77;45.16
41044;BME280;51680;49.806;18.774;2022-12-18T09:46:48;99246.84;;;9.84;45.21
41044;BME280;51680;49.806;18.774;2022-12-18T09:49:55;99250.13;;;10.42;45.21
41044;BME280;51680;49.806;18.774;2022-12-18T09:53:02;99254.94;;;11.03;40.38
41044;BME280;51680;49.806;18.774;2022-12-18T09:56:10;99252.47;;;12.12;41.21
41044;BME280;51680;49.806;18.774;2022-12-18T09:59:20;99260.53;;;11.40;39.31
41044;BME280;51680;49.806;18.774;2022-12-18T10:02:23;99266.09;;;11.77;41.46
41044;BME280;51680;49.806;18.774;2022-12-18T10:05:30;99257.72;;;10.74;38.04
41044;BME280;51680;49.806;18.774;2022-12-18T10:08:42;99250.72;;;9.13;37.26
41044;BME280;51680;49.806;18.774;2022-12-18T10:11:56;99250.69;;;8.52;40.77
41044;BME280;51680;49.806;18.774;2022-12-18T10:15:06;99250.41;;;9.23;42.46
41044;BME280;51680;49.806;18.774;2022-12-18T10:18:21;99243.09;;;10.18;38.43
41044;BME280;51680;49.806;18.774;2022-12-18T10:21:30;99245.84;;;9.31;38.51
41044;BME280;51680;49.806;18.774;2022-12-18T10:24:39;99236.66;;;9.47;38.24
41044;BME280;51680;49.806;18.774;2022-12-18T10:27:43;99238.84;;;8.40;41.41
41044;BME280;51680;49.806;18.774;2022-12-18T10:30:46;99236.16;;;8.08;41.93
41044;BME280;51680;49.806;18.774;2022-12-18T10:33:48;99225.38;;;7.88;42.94
41044;BME280;51680;49.806;18.774;2022-12-18T10:36:49;99221.00;;;8.27;41.46
41044;BME280;51680;49.806;18.774;2022-12-18T10:40:08;99225.72;;;10.43;38.50
41044;BME280;51680;49.806;18.774;2022-12-18T10:43:12;99221.09;;;12.32;40.26
41044;BME280;51680;49.806;18.774;2022-12-18T10:46:17;99210.13;;;13.95;36.62
41044;BME280;51680;49.806;18.774;2022-12-18T10:49:26;99209.44;;;14.61;32.27
41044;BME280;51680;49.806;18.774;2022-12-18T10:52:28;99205.88;;;12.80;36.17
41044;BME280;51680;49.806;18.774;2022-12-18T10:55:34;99203.91;;;11.39;37.17
41044;BME280;51680;49.806;18.774;2022-12-18T10:58:38;99213.47;;;9.93;40.78
41044;BME280;51680;49.806;18.774;2022-12-18T11:01:52;99212.38;;;8.87;38.99
41044;BME280;51680;49.806;18.774;2022-12-18T11:04:55;99216.03;;;7.81;43.66
41044;BME280;51680;49.806;18.774;2022-12-18T11:07:57;99205.28;;;6.79;45.27
41044;BME280;51680;49.806;18.774;2022-12-18T11:11:01;99211.78;;;5.57;45.73
41044;BME280;51680;49.806;18.774;2022-12-18T11:14:05;99210.50;;;4.57;47.03
41044;BME280;51680;49.806;18.774;2022-12-18T11:17:18;99215.69;;;3.66;46.38
41044;BME280;51680;49.806;18.774;2022-12-18T11:20:26;99222.91;;;3.09;48.93
41044;BME280;51680;49.806;18.774;2022-12-18T11:23:32;99224.03;;;2.46;50.66
41044;BME280;51680;49.806;18.774;2022-12-18T11:26:36;99213.84;;;1.82;51.90
41044;BME280;51680;49.806;18.774;2022-12-18T11:29:39;99216.31;;;0.96;53.83
41044;BME280;51680;49.806;18.774;2022-12-18T11:32:43;99215.16;;;0.37;54.95
41044;BME280;51680;49.806;18.774;2022-12-18T11:35:50;99222.75;;;0.19;56.36
41044;BME280;51680;49.806;18.774;2022-12-18T11:38:54;99227.91;;;0.16;56.90
41044;BME280;51680;49.806;18.774;2022-12-18T11:42:02;99229.59;;;0.17;57.14
41044;BME280;51680;49.806;18.774;2022-12-18T11:45:29;99231.19;;;-0.03;57.48
41044;BME280;51680;49.806;18.774;2022-12-18T11:48:34;99229.47;;;-0.01;58.08
41044;BME280;51680;49.806;18.774;2022-12-18T11:51:55;99227.97;;;0.25;58.07
41044;BME280;51680;49.806;18.774;2022-12-18T11:55:01;99235.88;;;0.66;57.89
41044;BME280;51680;49.806;18.774;2022-12-18T11:58:19;99238.56;;;0.94;57.13
41044;BME280;51680;49.806;18.774;2022-12-18T12:01:37;99236.03;;;1.17;56.97
41044;BME280;51680;49.806;18.774;2022-12-18T12:04:50;99240.38;;;1.43;57.48
41044;BME280;51680;49.806;18.774;2022-12-18T12:08:01;99247.28;;;1.56;58.14
41044;BME280;51680;49.806;18.774;2022-12-18T12:11:10;99249.00;;;1.69;58.43
41044;BME280;51680;49.806;18.774;2022-12-18T12:14:26;99259.31;;;1.78;57.93
41044;BME280;51680;49.806;18.774;2022-12-18T12:17:37;99249.88;;;1.79;58.54
41044;BME280;51680;49.806;18.774;2022-12-18T12:20:49;99253.31;;;1.78;58.84
41044;BME280;51680;49.806;18.774;2022-12-18T12:23:59;99269.59;;;1.81;58.75
41044;BME280;51680;49.806;18.774;2022-12-18T12:27:08;99257.59;;;1.83;58.35
41044;BME280;51680;49.806;18.774;2022-12-18T12:30:20;99245.59;;;1.79;57.72
41044;BME280;51680;49.806;18.774;2022-12-18T12:33:37;99254.16;;;1.72;56.61
41044;BME280;51680;49.806;18.774;2022-12-18T12:36:55;99253.28;;;1.57;57.16
41044;BME280;51680;49.806;18.774;2022-12-18T12:39:58;99261.00;;;1.42;57.78
41044;BME280;51680;49.806;18.774;2022-12-18T12:43:07;99269.50;;;1.20;58.12
41044;BME280;51680;49.806;18.774;2022-12-18T12:46:19;99252.25;;;0.90;58.41
41044;BME280;51680;49.806;18.774;2022-12-18T12:49:26;99259.84;;;0.62;58.84
41044;BME280;51680;49.806;18.774;2022-12-18T12:52:32;99261.50;;;0.53;59.41
41044;BME280;51680;49.806;18.774;2022-12-18T12:55:36;99271.59;;;0.25;59.43
41044;BME280;51680;49.806;18.774;2022-12-18T12:58:46;99284.34;;;0.10;60.22
41044;BME280;51680;49.806;18.774;2022-12-18T13:01:58;99280.00;;;0.04;60.45
41044;BME280;51680;49.806;18.774;2022-12-18T13:05:04;99277.47;;;0.06;60.88
41044;BME280;51680;49.806;18.774;2022-12-18T13:08:10;99272.31;;;0.06;60.83
41044;BME280;51680;49.806;18.774;2022-12-18T13:11:29;99280.78;;;-0.06;61.17
41044;BME280;51680;49.806;18.774;2022-12-18T13:14:49;99280.75;;;-0.09;61.32
41044;BME280;51680;49.806;18.774;2022-12-18T13:18:05;99278.09;;;-0.22;61.19
41044;BME280;51680;49.806;18.774;2022-12-18T13:21:21;99284.03;;;-0.26;61.97
41044;BME280;51680;49.806;18.774;2022-12-18T13:24:27;99286.56;;;-0.28;61.97
41044;BME280;51680;49.806;18.774;2022-12-18T13:27:47;99286.53;;;-0.34;61.92
41044;BME280;51680;49.806;18.774;2022-12-18T13:30:57;99288.13;;;-0.46;62.21
41044;BME280;51680;49.806;18.774;2022-12-18T13:34:16;99283.47;;;-0.82;63.06
41044;BME280;51680;49.806;18.774;2022-12-18T13:37:43;99294.00;;;-1.28;64.53
41044;BME280;51680;49.806;18.774;2022-12-18T13:40:56;99300.28;;;-1.66;65.71
41044;BME280;51680;49.806;18.774;2022-12-18T13:44:11;99293.06;;;-1.92;66.75
41044;BME280;51680;49.806;18.774;2022-12-18T13:47:25;99296.13;;;-2.16;67.74
41044;BME280;51680;49.806;18.774;2022-12-18T13:50:30;99294.00;;;-2.41;68.47
41044;BME280;51680;49.806;18.774;2022-12-18T13:53:37;99298.03;;;-2.53;68.85
41044;BME280;51680;49.806;18.774;2022-12-18T13:56:43;99301.09;;;-2.71;69.65
41044;BME280;51680;49.806;18.774;2022-12-18T13:59:46;99302.56;;;-2.83;70.24
41044;BME280;51680;49.806;18.774;2022-12-18T14:02:48;99305.19;;;-2.80;69.69
41044;BME280;51680;49.806;18.774;2022-12-18T14:05:58;99303.34;;;-2.86;70.72
41044;BME280;51680;49.806;18.774;2022-12-18T14:09:02;99293.59;;;-3.05;71.14
41044;BME280;51680;49.806;18.774;2022-12-18T14:12:05;99301.88;;;-3.16;71.65
41044;BME280;51680;49.806;18.774;2022-12-18T14:15:31;99296.34;;;-3.37;73.74
41044;BME280;51680;49.806;18.774;2022-12-18T14:18:41;99295.31;;;-3.45;73.33
41044;BME280;51680;49.806;18.774;2022-12-18T14:21:47;99299.47;;;-3.50;73.44
41044;BME280;51680;49.806;18.774;2022-12-18T14:25:10;99304.41;;;-3.58;75.01
41044;BME280;51680;49.806;18.774;2022-12-18T14:28:15;99310.16;;;-3.66;74.93
41044;BME280;51680;49.806;18.774;2022-12-18T14:31:18;99311.69;;;-3.74;75.00
41044;BME280;51680;49.806;18.774;2022-12-18T14:34:26;99314.09;;;-3.80;75.55
41044;BME280;51680;49.806;18.774;2022-12-18T14:37:29;99314.88;;;-3.83;75.12
41044;BME280;51680;49.806;18.774;2022-12-18T14:40:31;99308.03;;;-3.85;75.65
41044;BME280;51680;49.806;18.774;2022-12-18T14:43:35;99310.44;;;-3.91;75.75
41044;BME280;51680;49.806;18.774;2022-12-18T14:46:38;99307.94;;;-3.90;75.43
41044;BME280;51680;49.806;18.774;2022-12-18T14:49:43;99318.97;;;-3.89;75.45
41044;BME280;51680;49.806;18.774;2022-12-18T14:52:46;99314.00;;;-3.83;74.84
41044;BME280;51680;49.806;18.774;2022-12-18T14:55:48;99307.41;;;-3.75;74.33
41044;BME280;51680;49.806;18.774;2022-12-18T14:58:53;99305.00;;;-3.69;73.70
41044;BME280;51680;49.806;18.774;2022-12-18T15:02:00;99303.41;;;-3.64;73.45
41044;BME280;51680;49.806;18.774;2022-12-18T15:05:05;99313.00;;;-3.53;73.17
41044;BME280;51680;49.806;18.774;2022-12-18T15:08:31;99320.88;;;-3.44;73.19
41044;BME280;51680;49.806;18.774;2022-12-18T15:11:44;99321.88;;;-3.37;72.47
41044;BME280;51680;49.806;18.774;2022-12-18T15:14:46;99322.75;;;-3.35;72.42
41044;BME280;51680;49.806;18.774;2022-12-18T15:17:48;99316.69;;;-3.40;72.64
41044;BME280;51680;49.806;18.774;2022-12-18T15:20:52;99320.66;;;-3.54;73.07
41044;BME280;51680;49.806;18.774;2022-12-18T15:23:59;99325.56;;;-3.63;73.90
41044;BME280;51680;49.806;18.774;2022-12-18T15:27:01;99331.34;;;-3.70;74.19
41044;BME280;51680;49.806;18.774;2022-12-18T15:30:21;99332.91;;;-3.75;74.97
41044;BME280;51680;49.806;18.774;2022-12-18T15:33:26;99331.06;;;-3.82;74.38
41044;BME280;51680;49.806;18.774;2022-12-18T15:36:28;99336.09;;;-3.85;75.09
41044;BME280;51680;49.806;18.774;2022-12-18T15:39:33;99345.41;;;-3.87;75.95
41044;BME280;51680;49.806;18.774;2022-12-18T15:42:36;99351.47;;;-3.82;74.82
41044;BME280;51680;49.806;18.774;2022-12-18T15:45:55;99346.84;;;-3.61;74.19
41044;BME280;51680;49.806;18.774;2022-12-18T15:48:57;99345.34;;;-3.53;73.27
41044;BME280;51680;49.806;18.774;2022-12-18T15:51:59;99353.09;;;-3.49;73.37
41044;BME280;51680;49.806;18.774;2022-12-18T15:55:05;99359.09;;;-3.47;73.45
41044;BME280;51680;49.806;18.774;2022-12-18T15:58:24;99358.22;;;-3.47;73.04
41044;BME280;51680;49.806;18.774;2022-12-18T16:01:27;99352.28;;;-3.46;72.72
41044;BME280;51680;49.806;18.774;2022-12-18T16:04:29;99364.97;;;-3.51;74.48
41044;BME280;51680;49.806;18.774;2022-12-18T16:07:31;99359.28;;;-3.38;73.11
41044;BME280;51680;49.806;18.774;2022-12-18T16:10:34;99364.63;;;-3.27;72.67
41044;BME280;51680;49.806;18.774;2022-12-18T16:13:36;99365.63;;;-3.21;72.90